Time;durP1;ratioP1;P1;durP2;ratioP2;P2;SDS_P1;SDS_P2;PMS_P1;PMS_P2;Temp;Humidity;BMP_temperature;BMP_pressure;BME280_temperature;BME280_humidity;BME280_pressure;Samples;Min_cycle;Max_cycle;Signal;HPM_P1;HPM_P2
2023/01/10 00:01:35;;;;;;;82.80;35.60;;;;;;;42.06;34.46;101211.22;4813742;29;20533;-73
2023/01/10 00:04:03;;;;;;;90.53;35.90;;;;;;;42.06;34.58;101215.88;4805880;29;20469;-72
2023/01/10 00:06:29;;;;;;;78.77;31.93;;;;;;;42.03;34.61;101216.53;4812746;29;20576;-74
2023/01/10 00:08:56;;;;;;;59.27;35.27;;;;;;;41.98;34.79;101213.97;4819245;29;20441;-73
2023/01/10 00:14:07;;;;;;;82.13;33.40;;;;;;;41.88;34.86;101206.97;4812974;29;20411;-72
2023/01/10 00:16:33;;;;;;;81.00;30.83;;;;;;;41.90;34.79;101206.63;4811356;29;20438;-73
2023/01/10 00:18:59;;;;;;;54.73;30.73;;;;;;;41.98;34.58;101213.97;4818687;29;20435;-72
2023/01/10 00:21:27;;;;;;;67.63;34.63;;;;;;;41.95;34.56;101209.97;4811468;29;20430;-71
2023/01/10 00:23:53;;;;;;;129.73;37.57;;;;;;;41.95;34.73;101203.75;4817186;29;20426;-74
2023/01/10 00:26:19;;;;;;;78.87;35.33;;;;;;;41.98;34.77;101198.41;4811259;29;20877;-74
2023/01/10 00:28:45;;;;;;;75.37;34.40;;;;;;;41.78;35.06;101199.13;4816598;29;20200;-73
2023/01/10 00:31:12;;;;;;;79.00;31.10;;;;;;;41.85;34.61;101193.97;4811193;29;20541;-71
2023/01/10 00:33:38;;;;;;;63.97;32.43;;;;;;;41.93;34.74;101195.06;4816479;29;20821;-72
2023/01/10 00:36:06;;;;;;;98.70;38.87;;;;;;;41.98;34.61;101195.69;4811788;29;20974;-72
2023/01/10 00:38:34;;;;;;;78.77;34.00;;;;;;;41.91;34.85;101194.59;4822786;29;20489;-72
2023/01/10 00:41:01;;;;;;;76.33;35.10;;;;;;;41.91;34.73;101200.06;4814916;29;20434;-72
2023/01/10 00:46:11;;;;;;;64.17;32.90;;;;;;;41.85;34.70;101205.69;4821231;29;20815;-75
2023/01/10 00:48:38;;;;;;;80.47;33.20;;;;;;;41.93;34.36;101200.53;4812367;29;20426;-75
2023/01/10 00:51:04;;;;;;;72.90;33.37;;;;;;;41.92;34.63;101204.38;4819555;29;20819;-72
2023/01/10 00:53:30;;;;;;;90.83;36.10;;;;;;;41.80;34.71;101202.31;4810295;29;20594;-72
2023/01/10 00:55:56;;;;;;;68.00;31.37;;;;;;;41.77;34.79;101198.34;4833695;29;20433;-72
2023/01/10 00:58:23;;;;;;;74.23;34.37;;;;;;;41.73;34.97;101194.63;4839425;29;20463;-72
2023/01/10 01:00:49;;;;;;;83.77;34.93;;;;;;;41.75;34.79;101188.91;4825110;29;20453;-71
2023/01/10 01:03:17;;;;;;;71.70;34.73;;;;;;;41.82;35.04;101195.44;4816489;29;20577;-74
2023/01/10 01:05:44;;;;;;;79.10;34.60;;;;;;;41.82;34.73;101194.66;4840052;29;20428;-72
2023/01/10 01:08:12;;;;;;;91.77;33.47;;;;;;;41.82;35.24;101189.19;4840023;29;20448;-72
2023/01/10 01:10:38;;;;;;;76.20;34.07;;;;;;;41.83;34.95;101188.88;4839805;29;20589;-71
2023/01/10 01:13:12;;;;;;;91.00;36.10;;;;;;;41.72;35.20;101190.31;4839019;29;20417;-72
2023/01/10 01:15:38;;;;;;;65.67;34.27;;;;;;;41.66;35.00;101183.44;4838814;29;21023;-71
2023/01/10 01:18:05;;;;;;;76.83;33.27;;;;;;;41.60;35.09;101190.97;4839759;29;20488;-71
2023/01/10 01:20:32;;;;;;;65.10;31.60;;;;;;;41.68;35.40;101186.66;4838881;29;20444;-72
2023/01/10 01:22:58;;;;;;;86.50;38.27;;;;;;;41.71;35.20;101187.91;4839624;29;20445;-72
2023/01/10 01:25:24;;;;;;;95.00;38.63;;;;;;;41.22;35.72;101187.34;4838050;29;20498;-71
2023/01/10 01:27:50;;;;;;;81.90;37.87;;;;;;;41.27;35.70;101179.00;4838495;29;20428;-72
2023/01/10 01:30:16;;;;;;;88.17;41.07;;;;;;;41.14;35.33;101185.44;4837601;29;20438;-72
2023/01/10 01:32:42;;;;;;;80.07;40.87;;;;;;;41.20;36.56;101189.59;4838583;29;20432;-73
2023/01/10 01:35:13;;;;;;;101.63;45.87;;;;;;;41.26;36.26;101188.31;4837740;29;20462;-71
2023/01/10 01:37:40;;;;;;;111.93;44.97;;;;;;;41.15;36.43;101182.38;4838881;29;20512;-71
2023/01/10 01:40:07;;;;;;;85.60;40.93;;;;;;;40.87;36.83;101181.06;4836909;29;20512;-72
2023/01/10 01:42:34;;;;;;;70.37;45.47;;;;;;;41.02;36.57;101175.97;4839583;29;21009;-72
2023/01/10 01:45:18;;;;;;;90.50;44.90;;;;;;;40.87;37.18;101181.84;4835354;29;20933;-72
2023/01/10 01:47:54;;;;;;;85.97;52.40;;;;;;;40.75;37.40;101177.03;4837680;29;20429;-72
2023/01/10 01:50:24;;;;;;;87.10;48.10;;;;;;;40.71;37.02;101181.53;4811268;29;20429;-72
2023/01/10 01:52:54;;;;;;;100.03;46.80;;;;;;;40.76;37.13;101184.09;4828735;29;20430;-72
2023/01/10 01:55:21;;;;;;;102.70;48.47;;;;;;;40.73;37.06;101182.00;4798873;29;20414;-72
2023/01/10 01:57:51;;;;;;;94.20;44.73;;;;;;;40.81;37.02;101181.19;4806106;29;20469;-75
2023/01/10 02:00:17;;;;;;;91.20;46.87;;;;;;;40.90;37.41;101185.88;4812094;29;20456;-74
2023/01/10 02:02:50;;;;;;;79.80;41.30;;;;;;;40.86;37.27;101184.91;4829138;29;20832;-73
2023/01/10 02:05:21;;;;;;;82.67;45.93;;;;;;;40.77;36.93;101174.81;4805303;29;20462;-73
2023/01/10 02:07:51;;;;;;;77.47;42.87;;;;;;;40.87;36.98;101170.16;4803773;29;20427;-72
2023/01/10 02:10:35;;;;;;;89.67;42.60;;;;;;;40.76;37.28;101173.22;4803797;29;20974;-72
2023/01/10 02:13:05;;;;;;;75.97;38.43;;;;;;;40.76;37.52;101177.84;4803434;29;20911;-72
2023/01/10 02:15:31;;;;;;;84.00;42.17;;;;;;;40.67;37.20;101169.69;4804255;29;21037;-72
2023/01/10 02:17:58;;;;;;;75.10;39.60;;;;;;;40.78;37.39;101168.25;4826426;29;21052;-72
2023/01/10 02:20:26;;;;;;;75.63;39.13;;;;;;;40.69;37.33;101167.44;4827334;29;20469;-71
2023/01/10 02:23:18;;;;;;;86.80;42.27;;;;;;;40.88;37.15;101161.69;4803806;29;20438;-72
2023/01/10 02:25:50;;;;;;;68.67;42.53;;;;;;;40.88;37.08;101164.41;4779290;29;20429;-72
2023/01/10 02:28:53;;;;;;;71.13;36.97;;;;;;;40.62;37.00;101169.81;4807642;29;20931;-72
2023/01/10 02:31:46;;;;;;;81.10;43.47;;;;;;;40.62;37.05;101164.38;4817140;29;20421;-72
2023/01/10 02:34:27;;;;;;;84.03;37.57;;;;;;;40.15;38.03;101166.03;4814006;29;20422;-72
2023/01/10 02:37:09;;;;;;;75.70;37.30;;;;;;;40.17;37.92;101167.28;4809950;29;20564;-72
2023/01/10 02:39:51;;;;;;;61.87;40.00;;;;;;;40.45;37.65;101170.56;4807250;29;20441;-72
2023/01/10 02:42:27;;;;;;;67.80;41.43;;;;;;;40.36;38.27;101160.78;4806827;29;20430;-72
2023/01/10 02:45:13;;;;;;;63.33;37.77;;;;;;;40.40;37.52;101172.66;4810961;29;20990;-72
2023/01/10 02:47:40;;;;;;;62.20;34.87;;;;;;;40.42;37.54;101163.03;4806688;29;20438;-72
2023/01/10 02:50:21;;;;;;;71.07;36.63;;;;;;;40.49;37.73;101166.13;4806574;29;20439;-71
2023/01/10 02:52:47;;;;;;;69.23;32.93;;;;;;;40.42;37.81;101165.75;4813014;29;20981;-72
2023/01/10 02:55:13;;;;;;;67.37;36.03;;;;;;;40.23;38.10;101174.19;4836889;29;20428;-72
2023/01/10 02:58:09;;;;;;;71.73;35.90;;;;;;;40.05;38.32;101182.59;4842379;29;20877;-71
2023/01/10 03:00:58;;;;;;;53.03;30.27;;;;;;;39.36;39.18;101191.09;4828202;29;20476;-75
2023/01/10 03:04:00;;;;;;;66.77;36.17;;;;;;;39.49;39.08;101185.59;4831541;29;20476;-75
2023/01/10 03:06:58;;;;;;;61.27;38.37;;;;;;;39.68;38.71;101177.28;4841769;29;20432;-72
2023/01/10 03:09:24;;;;;;;61.27;32.50;;;;;;;39.68;38.92;101182.69;4841210;29;20527;-72
2023/01/10 03:12:01;;;;;;;65.20;36.50;;;;;;;39.48;39.61;101184.00;4839645;29;20532;-72
2023/01/10 03:14:30;;;;;;;56.03;34.50;;;;;;;39.65;38.92;101177.88;4841551;29;20183;-74
2023/01/10 03:17:00;;;;;;;58.77;31.83;;;;;;;39.64;38.95;101189.84;4836828;29;20465;-74
2023/01/10 03:19:36;;;;;;;42.33;30.57;;;;;;;39.44;39.11;101184.91;4821306;29;20450;-72
2023/01/10 03:22:04;;;;;;;53.27;30.07;;;;;;;39.85;38.45;101176.56;4810715;29;20437;-72
2023/01/10 03:24:35;;;;;;;44.30;29.17;;;;;;;39.70;38.50;101172.31;4835095;29;20487;-71
2023/01/10 03:27:29;;;;;;;50.10;32.40;;;;;;;39.68;38.90;101177.28;4841273;29;20431;-71
2023/01/10 03:30:07;;;;;;;40.93;28.30;;;;;;;39.71;38.47;101176.63;4841112;29;20437;-72
2023/01/10 03:32:33;;;;;;;49.70;30.80;;;;;;;39.68;38.43;101171.03;4843047;29;20428;-71
2023/01/10 03:35:01;;;;;;;44.57;30.33;;;;;;;39.55;38.97;101169.19;4840248;29;20425;-75
2023/01/10 03:37:36;;;;;;;44.00;26.60;;;;;;;39.71;38.68;101173.91;4840625;29;20472;-71
2023/01/10 03:40:27;;;;;;;50.50;27.60;;;;;;;39.46;39.15;101174.53;4838976;29;20979;-72
2023/01/10 03:46:29;;;;;;;40.50;28.67;;;;;;;39.72;38.76;101172.81;4842059;29;20427;-72
2023/01/10 03:48:57;;;;;;;45.70;26.83;;;;;;;39.65;38.56;101179.78;4817843;29;20421;-71
2023/01/10 03:51:24;;;;;;;42.67;28.37;;;;;;;39.75;38.47;101176.81;4838737;29;20793;-74
2023/01/10 03:53:50;;;;;;;41.90;29.30;;;;;;;39.84;38.34;101183.13;4820116;29;20500;-74
2023/01/10 03:56:16;;;;;;;41.03;28.23;;;;;;;39.92;38.22;101176.91;4817318;29;20417;-71
2023/01/10 03:58:42;;;;;;;50.17;32.03;;;;;;;40.03;38.32;101180.16;4805535;29;20473;-72
2023/01/10 04:01:08;;;;;;;40.10;30.00;;;;;;;39.86;37.88;101180.09;4810936;29;20441;-72
2023/01/10 04:03:34;;;;;;;34.27;26.60;;;;;;;39.54;38.60;101187.38;4824944;29;20473;-74
2023/01/10 04:06:00;;;;;;;49.97;27.70;;;;;;;39.40;39.06;101190.13;4805257;29;20478;-74
2023/01/10 04:08:26;;;;;;;41.93;29.23;;;;;;;39.47;39.06;101189.72;4806637;29;20673;-71
2023/01/10 04:10:52;;;;;;;36.17;25.97;;;;;;;39.47;38.98;101187.00;4833497;29;20509;-72
2023/01/10 04:13:18;;;;;;;44.83;26.33;;;;;;;39.46;39.09;101193.53;4841329;29;20552;-72
2023/01/10 04:15:43;;;;;;;43.47;29.57;;;;;;;39.59;38.90;101187.22;4839393;29;20265;-71
2023/01/10 04:18:09;;;;;;;38.20;27.83;;;;;;;39.78;38.39;101186.25;4840287;29;20215;-74
2023/01/10 04:20:35;;;;;;;49.00;28.00;;;;;;;39.90;38.11;101192.75;4838182;29;20503;-74
2023/01/10 04:23:01;;;;;;;49.97;28.07;;;;;;;39.73;38.67;101200.78;4839726;29;20482;-72
2023/01/10 04:25:27;;;;;;;51.80;26.27;;;;;;;39.86;38.42;101207.25;4837615;29;20337;-75
2023/01/10 04:27:53;;;;;;;46.23;27.97;;;;;;;39.86;38.29;101196.38;4839997;29;20187;-75
2023/01/10 04:30:19;;;;;;;44.37;29.00;;;;;;;40.00;38.05;101202.50;4838670;29;20573;-74
2023/01/10 04:32:46;;;;;;;46.73;26.70;;;;;;;39.80;38.28;101200.34;4840353;29;20994;-74
2023/01/10 04:35:12;;;;;;;45.30;30.17;;;;;;;39.69;38.42;101202.50;4839624;29;20440;-74
2023/01/10 04:37:38;;;;;;;60.73;31.17;;;;;;;39.34;39.14;101212.28;4839844;29;20484;-72
2023/01/10 04:40:05;;;;;;;62.53;32.97;;;;;;;39.44;38.90;101212.06;4839358;29;20436;-72
2023/01/10 04:42:31;;;;;;;59.20;33.00;;;;;;;39.53;38.99;101215.63;4840956;29;20443;-72
2023/01/10 04:44:57;;;;;;;52.57;31.47;;;;;;;39.64;38.63;101208.06;4839770;29;20436;-72
2023/01/10 04:47:23;;;;;;;46.33;28.77;;;;;;;39.32;39.18;101214.53;4840010;29;20428;-75
2023/01/10 04:49:49;;;;;;;59.67;34.30;;;;;;;39.55;39.22;101212.63;4839379;29;20512;-71
2023/01/10 04:52:15;;;;;;;42.67;30.10;;;;;;;39.66;38.79;101211.28;4835290;29;20188;-71
2023/01/10 04:54:41;;;;;;;58.20;33.93;;;;;;;39.65;38.74;101210.47;4833466;29;20443;-74
2023/01/10 04:57:06;;;;;;;49.97;30.60;;;;;;;39.58;38.71;101209.28;4806481;29;20478;-71
2023/01/10 04:59:32;;;;;;;57.83;30.83;;;;;;;39.74;38.87;101221.41;4823373;29;20508;-74
2023/01/10 05:01:58;;;;;;;52.30;33.57;;;;;;;39.76;38.43;101230.81;4805443;29;20955;-71
2023/01/10 05:04:24;;;;;;;56.30;30.67;;;;;;;39.55;38.93;101235.13;4833648;29;20532;-71
2023/01/10 05:06:50;;;;;;;63.93;34.57;;;;;;;39.58;39.11;101244.56;4823507;29;20220;-72
2023/01/10 05:09:16;;;;;;;61.57;34.33;;;;;;;39.55;38.73;101251.44;4809305;29;20468;-71
2023/01/10 05:11:42;;;;;;;53.23;33.23;;;;;;;39.30;39.50;101252.03;4841620;29;20248;-72
2023/01/10 05:14:08;;;;;;;50.97;31.37;;;;;;;39.11;39.94;101252.94;4840766;29;20430;-74
2023/01/10 05:16:35;;;;;;;48.10;33.63;;;;;;;39.25;39.47;101255.66;4839761;29;20311;-74
2023/01/10 05:19:01;;;;;;;64.47;35.13;;;;;;;39.41;39.50;101256.91;4836786;29;20465;-72
2023/01/10 05:21:27;;;;;;;57.77;33.90;;;;;;;39.30;39.88;101254.75;4811812;29;20458;-72
2023/01/10 05:23:53;;;;;;;72.83;38.73;;;;;;;39.20;39.90;101253.03;4804418;29;20489;-71
2023/01/10 05:26:21;;;;;;;64.83;36.80;;;;;;;39.16;39.97;101254.75;4822396;29;20191;-72
2023/01/10 05:28:47;;;;;;;53.40;34.97;;;;;;;39.10;40.00;101254.06;4834773;29;20227;-72
2023/01/10 05:31:16;;;;;;;89.87;41.50;;;;;;;39.37;39.98;101255.13;4838071;29;20427;-72
2023/01/10 05:33:50;;;;;;;72.53;35.77;;;;;;;39.29;39.62;101253.09;4834807;29;20456;-74
2023/01/10 05:36:17;;;;;;;67.30;37.00;;;;;;;39.30;39.67;101252.03;4832129;29;20441;-75
2023/01/10 05:38:44;;;;;;;66.80;38.17;;;;;;;39.27;39.80;101258.06;4833426;29;20495;-73
2023/01/10 05:41:10;;;;;;;71.33;36.33;;;;;;;39.23;39.90;101252.44;4827614;29;20460;-72
2023/01/10 05:43:36;;;;;;;72.83;40.53;;;;;;;39.40;39.65;101259.91;4805887;29;20430;-71
2023/01/10 05:46:03;;;;;;;82.90;40.80;;;;;;;39.29;39.42;101253.09;4827779;29;20437;-72
2023/01/10 05:48:29;;;;;;;72.50;40.07;;;;;;;39.34;39.34;101259.22;4828102;29;21256;-74
2023/01/10 05:50:56;;;;;;;59.37;37.17;;;;;;;39.37;38.83;101255.91;4839553;29;20989;-72
2023/01/10 05:53:22;;;;;;;80.70;39.07;;;;;;;39.35;39.04;101258.16;4827560;29;20520;-72
2023/01/10 05:55:55;;;;;;;68.80;38.23;;;;;;;39.62;38.54;101254.53;4839623;29;20524;-72
2023/01/10 05:58:21;;;;;;;66.93;34.90;;;;;;;38.95;39.31;101254.38;4839211;29;21000;-72
2023/01/10 06:00:47;;;;;;;85.00;42.23;;;;;;;39.30;39.41;101255.53;4823965;29;20860;-72
2023/01/10 06:03:14;;;;;;;85.67;41.20;;;;;;;39.26;39.25;101253.75;4842636;29;20964;-72
2023/01/10 06:05:40;;;;;;;69.20;39.20;;;;;;;39.44;38.83;101256.28;4844568;29;20448;-72
2023/01/10 06:08:05;;;;;;;78.70;41.37;;;;;;;38.88;39.89;101254.78;4842403;29;20424;-71
2023/01/10 06:10:31;;;;;;;68.57;41.90;;;;;;;38.81;40.39;101256.31;4842749;29;20428;-75
2023/01/10 06:12:57;;;;;;;61.50;36.00;;;;;;;39.29;39.50;101253.09;4841110;29;20238;-75
2023/01/10 06:15:23;;;;;;;92.90;39.97;;;;;;;39.28;39.24;101257.75;4836163;29;20180;-72
2023/01/10 06:17:49;;;;;;;74.37;41.93;;;;;;;39.08;39.36;101256.25;4811759;29;20492;-72
2023/01/10 06:20:15;;;;;;;72.90;40.90;;;;;;;39.15;39.21;101256.63;4817064;29;20188;-71
2023/01/10 06:22:42;;;;;;;81.93;42.87;;;;;;;39.19;39.31;101265.00;4837037;29;20432;-72
2023/01/10 06:25:11;;;;;;;72.03;43.80;;;;;;;38.96;39.50;101264.91;4842060;29;20436;-71
2023/01/10 06:27:41;;;;;;;73.37;42.10;;;;;;;38.81;39.84;101253.59;4841334;29;20432;-72
2023/01/10 06:30:08;;;;;;;70.53;43.57;;;;;;;39.04;39.56;101268.84;4841776;29;20492;-74
2023/01/10 06:32:35;;;;;;;75.20;39.60;;;;;;;39.28;39.27;101268.59;4841680;29;20855;-71
2023/01/10 06:35:01;;;;;;;63.60;39.97;;;;;;;38.86;39.88;101270.56;4829095;29;21115;-72
2023/01/10 06:37:27;;;;;;;62.53;39.00;;;;;;;39.10;39.55;101272.22;4827523;29;20580;-76
2023/01/10 06:39:53;;;;;;;80.53;42.90;;;;;;;38.89;39.57;101275.38;4837601;29;20452;-73
2023/01/10 06:42:19;;;;;;;60.73;42.10;;;;;;;39.25;39.18;101277.38;4831673;29;20452;-72
2023/01/10 06:44:45;;;;;;;70.37;45.50;;;;;;;38.81;39.89;101281.53;4831939;29;20200;-73
2023/01/10 06:47:11;;;;;;;70.60;46.30;;;;;;;39.09;39.58;101290.41;4829996;29;21079;-74
2023/01/10 06:49:36;;;;;;;98.77;50.37;;;;;;;39.28;39.24;101292.22;4825641;29;20440;-74
2023/01/10 06:52:02;;;;;;;99.80;52.30;;;;;;;39.40;38.72;101290.56;4825511;29;20502;-77
2023/01/10 06:54:28;;;;;;;120.47;53.30;;;;;;;39.55;38.55;101299.50;4833095;29;20217;-78
2023/01/10 06:56:54;;;;;;;101.30;47.50;;;;;;;39.65;38.45;101301.97;4830373;29;20456;-74
2023/01/10 06:59:20;;;;;;;113.43;55.57;;;;;;;39.60;38.53;101302.94;4828363;29;20425;-79
2023/01/10 07:01:46;;;;;;;98.23;55.73;;;;;;;39.78;38.19;101303.88;4819070;29;20200;-80
2023/01/10 07:04:12;;;;;;;81.67;50.47;;;;;;;39.86;38.12;101315.91;4828447;29;20278;-75
2023/01/10 07:06:40;;;;;;;106.90;52.20;;;;;;;39.87;38.13;101315.56;4830466;29;20229;-79
2023/01/10 07:09:06;;;;;;;111.40;55.30;;;;;;;39.92;37.84;101320.09;4834383;29;20502;-75
2023/01/10 07:11:33;;;;;;;111.27;50.67;;;;;;;39.79;37.76;101326.41;4835281;29;21147;-72
2023/01/10 07:14:00;;;;;;;96.60;51.63;;;;;;;39.83;38.12;101330.06;4808866;29;20799;-72
2023/01/10 07:16:26;;;;;;;98.10;52.93;;;;;;;39.90;38.04;101338.59;4827066;29;20437;-73
2023/01/10 07:18:52;;;;;;;93.67;45.90;;;;;;;39.99;37.76;101342.19;4837057;29;20467;-72
2023/01/10 07:21:18;;;;;;;92.37;49.57;;;;;;;39.92;37.54;101339.09;4833668;29;20440;-73
2023/01/10 07:23:48;;;;;;;80.67;45.17;;;;;;;39.82;38.09;101352.91;4836294;29;20834;-75
2023/01/10 07:26:17;;;;;;;87.90;52.77;;;;;;;39.91;37.89;101357.31;4840972;29;20461;-73
2023/01/10 07:28:52;;;;;;;109.03;49.27;;;;;;;39.82;37.87;101364.59;4838916;29;20593;-77
2023/01/10 07:31:19;;;;;;;83.50;46.90;;;;;;;39.65;38.37;101369.88;4839936;29;20428;-73
2023/01/10 07:33:45;;;;;;;76.53;46.30;;;;;;;39.57;38.41;101368.66;4840237;29;20504;-73
2023/01/10 07:36:11;;;;;;;96.20;49.57;;;;;;;39.91;38.13;101380.97;4836872;29;20925;-72
2023/01/10 07:38:37;;;;;;;129.50;58.47;;;;;;;40.03;37.90;101381.22;4836060;29;20487;-77
2023/01/10 07:41:05;;;;;;;108.03;50.07;;;;;;;39.99;37.74;101388.38;4840280;29;20440;-73
2023/01/10 07:43:31;;;;;;;99.37;53.83;;;;;;;39.81;37.63;101390.16;4839598;29;20428;-75
2023/01/10 07:46:01;;;;;;;96.47;48.43;;;;;;;39.74;38.08;101389.78;4836396;29;20488;-75
2023/01/10 07:48:27;;;;;;;109.00;48.77;;;;;;;39.76;37.89;101382.13;4840496;29;21034;-74
2023/01/10 07:50:58;;;;;;;89.50;44.57;;;;;;;39.65;38.07;101386.97;4834528;29;20531;-72
2023/01/10 07:53:26;;;;;;;96.23;46.17;;;;;;;39.58;38.26;101391.97;4826065;29;20882;-73
2023/01/10 07:55:52;;;;;;;96.50;48.13;;;;;;;39.92;37.71;101390.72;4832247;29;20544;-74
2023/01/10 07:58:18;;;;;;;87.40;49.80;;;;;;;40.11;37.23;101388.66;4814643;29;20471;-73
2023/01/10 08:00:45;;;;;;;85.70;51.80;;;;;;;39.93;37.37;101386.88;4819454;29;20458;-73
2023/01/10 08:03:14;;;;;;;114.63;50.37;;;;;;;39.91;37.43;101397.28;4832174;29;20437;-79
2023/01/10 08:05:41;;;;;;;103.83;51.50;;;;;;;40.15;37.18;101394.28;4827911;29;21498;-76
2023/01/10 08:08:09;;;;;;;84.67;50.17;;;;;;;40.36;37.13;101403.53;4837641;29;20828;-73
2023/01/10 08:10:36;;;;;;;83.90;47.87;;;;;;;40.21;37.21;101403.94;4838661;29;20437;-76
2023/01/10 08:13:02;;;;;;;109.43;52.43;;;;;;;40.08;37.60;101402.03;4837948;29;20433;-73
2023/01/10 08:15:28;;;;;;;99.87;47.63;;;;;;;39.72;37.55;101406.38;4837489;29;20448;-76
2023/01/10 08:17:54;;;;;;;83.63;51.10;;;;;;;39.56;38.20;101405.06;4823728;29;20462;-73
2023/01/10 08:20:20;;;;;;;92.07;48.57;;;;;;;39.92;37.95;101405.09;4837302;29;20475;-75
2023/01/10 08:22:46;;;;;;;96.87;50.40;;;;;;;39.78;37.95;101407.06;4835354;29;20455;-73
2023/01/10 08:25:12;;;;;;;107.13;50.07;;;;;;;39.96;37.63;101405.28;4831035;29;20184;-75
2023/01/10 08:27:38;;;;;;;79.03;40.93;;;;;;;39.97;37.01;101394.13;4832674;29;20814;-81
2023/01/10 08:30:05;;;;;;;80.77;48.60;;;;;;;40.32;37.01;101410.69;4836721;29;20428;-81
2023/01/10 08:32:30;;;;;;;87.97;47.57;;;;;;;40.37;36.52;101407.06;4832470;29;20270;-72
2023/01/10 08:34:56;;;;;;;77.77;44.73;;;;;;;40.36;36.08;101406.25;4836373;29;20556;-72
2023/01/10 08:37:22;;;;;;;74.03;42.77;;;;;;;40.55;35.73;101412.31;4841639;29;20605;-74
2023/01/10 08:39:48;;;;;;;102.17;46.97;;;;;;;40.67;35.63;101408.22;4839878;29;21028;-72
2023/01/10 08:42:15;;;;;;;102.40;48.40;;;;;;;40.48;35.92;101408.44;4838430;29;20424;-73
2023/01/10 08:44:41;;;;;;;88.93;42.77;;;;;;;40.74;35.55;101412.09;4840956;29;20217;-73
2023/01/10 08:47:09;;;;;;;88.03;43.70;;;;;;;40.79;35.32;101413.88;4855765;29;20423;-74
2023/01/10 08:49:34;;;;;;;99.63;44.60;;;;;;;40.62;35.37;101411.06;4839811;29;20488;-73
2023/01/10 08:52:01;;;;;;;90.17;44.53;;;;;;;40.79;35.14;101411.16;4837384;29;20463;-73
2023/01/10 08:54:27;;;;;;;83.63;39.80;;;;;;;40.74;35.25;101414.81;4841595;29;20182;-72
2023/01/10 08:56:53;;;;;;;83.67;40.17;;;;;;;40.86;34.81;101410.69;4839706;29;20496;-74
2023/01/10 08:59:19;;;;;;;68.20;41.00;;;;;;;40.86;35.12;101414.22;4832131;29;20426;-78
2023/01/10 09:01:45;;;;;;;75.77;40.97;;;;;;;41.01;34.61;101418.50;4824606;29;20436;-75
2023/01/10 09:04:11;;;;;;;85.97;41.17;;;;;;;40.82;34.41;101415.94;4816969;29;20681;-72
2023/01/10 09:06:37;;;;;;;79.43;42.80;;;;;;;40.89;34.53;101413.59;4821140;29;20950;-73
2023/01/10 09:09:04;;;;;;;88.23;44.27;;;;;;;41.01;34.21;101418.50;4810420;29;20437;-72
2023/01/10 09:11:30;;;;;;;87.43;44.07;;;;;;;40.77;34.93;101422.34;4833703;29;20445;-72
2023/01/10 09:13:56;;;;;;;65.13;36.90;;;;;;;40.80;34.73;101419.00;4839149;29;20439;-72
2023/01/10 09:16:23;;;;;;;74.37;40.43;;;;;;;40.97;34.54;101420.22;4827475;29;20231;-72
2023/01/10 09:18:49;;;;;;;94.63;40.43;;;;;;;41.13;33.97;101415.13;4835256;29;20531;-72
2023/01/10 09:21:15;;;;;;;71.97;35.60;;;;;;;41.17;34.35;101416.91;4823108;29;20600;-72
2023/01/10 09:23:42;;;;;;;94.97;41.63;;;;;;;41.18;33.88;101423.97;4819883;29;20464;-72
2023/01/10 09:26:08;;;;;;;73.37;41.80;;;;;;;41.21;34.07;101414.38;4852405;29;20190;-72
2023/01/10 09:28:34;;;;;;;82.50;39.27;;;;;;;41.23;33.64;101407.50;4834741;29;20464;-72
2023/01/10 09:31:03;;;;;;;82.43;46.10;;;;;;;41.11;33.92;101420.91;4829188;29;20436;-71
2023/01/10 09:33:29;;;;;;;77.40;44.50;;;;;;;40.98;34.12;101416.38;4825462;29;20188;-71
2023/01/10 09:35:57;;;;;;;76.97;41.80;;;;;;;40.99;34.06;101410.63;4820539;29;20434;-72
2023/01/10 09:38:24;;;;;;;86.17;42.30;;;;;;;41.13;33.83;101413.25;4807170;29;20485;-72
2023/01/10 09:41:08;;;;;;;78.07;41.60;;;;;;;41.20;33.98;101410.88;4810792;29;20445;-71
2023/01/10 09:44:02;;;;;;;84.90;43.07;;;;;;;41.17;34.16;101410.69;4831390;29;20478;-74
2023/01/10 09:46:31;;;;;;;90.80;42.13;;;;;;;41.37;34.71;101401.94;4821314;29;20449;-78
2023/01/10 09:49:12;;;;;;;85.83;44.90;;;;;;;41.46;34.68;101396.53;4833542;29;20476;-78
2023/01/10 09:51:43;;;;;;;95.67;44.80;;;;;;;41.52;34.67;101390.59;4835606;29;20443;-73
2023/01/10 09:54:15;;;;;;;80.33;48.67;;;;;;;41.45;34.47;101389.47;4813661;29;20435;-78
2023/01/10 09:56:41;;;;;;;73.60;41.60;;;;;;;41.65;34.17;101396.22;4808715;29;21014;-75
2023/01/10 09:59:22;;;;;;;85.90;45.80;;;;;;;41.66;34.16;101393.16;4815351;29;20474;-82
2023/01/10 10:01:51;;;;;;;70.17;41.60;;;;;;;41.66;33.95;101387.72;4809322;29;20430;-77
2023/01/10 10:04:33;;;;;;;97.70;48.80;;;;;;;41.72;34.13;101391.91;4803846;29;20435;-83
2023/01/10 10:07:00;;;;;;;85.67;46.90;;;;;;;41.82;34.29;101393.53;4815397;29;20441;-83
2023/01/10 10:09:30;;;;;;;67.67;44.47;;;;;;;41.85;34.16;101398.34;4830017;29;20436;-80
2023/01/10 10:12:08;;;;;;;78.13;45.70;;;;;;;41.87;33.86;101387.94;4832554;29;20946;-83
2023/01/10 10:14:59;;;;;;;101.77;45.17;;;;;;;41.90;34.19;101381.81;4823945;29;20960;-83
2023/01/10 10:18:11;;;;;;;91.03;49.07;;;;;;;41.91;33.95;101380.69;4833151;29;20469;-83
2023/01/10 10:21:15;;;;;;;106.80;47.00;;;;;;;41.98;34.28;101383.72;4807000;29;20432;-81
2023/01/10 10:23:53;;;;;;;80.50;44.10;;;;;;;42.03;33.58;101374.59;4764796;30;20431;-80
2023/01/10 10:26:33;;;;;;;80.60;44.60;;;;;;;42.03;33.85;101382.78;4757617;30;20453;-83
2023/01/10 10:29:18;;;;;;;80.93;44.07;;;;;;;41.95;33.66;101375.41;4801748;29;20497;-78
2023/01/10 10:32:15;;;;;;;88.50;41.37;;;;;;;41.99;33.98;101374.47;4818618;29;20445;-83
2023/01/10 10:35:00;;;;;;;85.10;43.70;;;;;;;41.89;34.33;101368.53;4826867;29;20457;-78
2023/01/10 10:37:38;;;;;;;83.97;43.40;;;;;;;41.90;34.34;101360.03;4820602;29;20476;-83
2023/01/10 10:40:13;;;;;;;97.50;44.50;;;;;;;41.84;34.42;101367.56;4797879;29;21044;-84
2023/01/10 10:42:45;;;;;;;73.77;42.00;;;;;;;42.01;34.22;101355.06;4794977;29;20481;-77
2023/01/10 10:45:18;;;;;;;93.43;44.67;;;;;;;41.94;34.20;101357.47;4818548;29;21036;-82
2023/01/10 10:47:50;;;;;;;85.33;44.27;;;;;;;42.00;34.48;101353.44;4814145;29;20458;-74
2023/01/10 10:50:32;;;;;;;78.33;45.17;;;;;;;42.06;34.49;101347.50;4819799;29;20429;-75
2023/01/10 10:53:04;;;;;;;80.43;43.80;;;;;;;42.10;33.95;101342.19;4819457;29;20513;-78
2023/01/10 10:55:36;;;;;;;85.93;46.13;;;;;;;42.12;34.24;101342.69;4818007;29;20441;-75
2023/01/10 10:58:04;;;;;;;83.27;40.33;;;;;;;42.16;34.22;101335.47;4830011;29;21037;-76
2023/01/10 11:00:30;;;;;;;96.63;48.37;;;;;;;42.08;34.08;101339.00;4807371;29;20481;-77
2023/01/10 11:03:26;;;;;;;77.83;44.37;;;;;;;42.16;34.09;101332.75;4811418;29;21034;-75
2023/01/10 11:05:52;;;;;;;85.87;46.13;;;;;;;42.22;33.94;101331.44;4806874;29;20444;-82
2023/01/10 11:08:20;;;;;;;100.60;45.80;;;;;;;42.25;33.98;101330.81;4808519;29;20458;-77
2023/01/10 11:10:52;;;;;;;110.77;51.60;;;;;;;42.09;34.35;101329.69;4810686;29;20461;-77
2023/01/10 11:13:45;;;;;;;99.30;46.57;;;;;;;42.10;33.62;101323.13;4806698;29;20462;-83
2023/01/10 11:16:28;;;;;;;65.60;43.27;;;;;;;42.20;34.05;101316.56;4815258;29;20442;-82
2023/01/10 11:19:18;;;;;;;81.70;39.70;;;;;;;42.25;34.00;101313.66;4809825;29;20469;-82
2023/01/10 11:22:01;;;;;;;81.63;40.73;;;;;;;42.21;33.44;101305.31;4805058;29;20446;-77
2023/01/10 11:24:35;;;;;;;92.60;45.20;;;;;;;42.24;33.69;101310.13;4795878;29;20439;-76
2023/01/10 11:27:31;;;;;;;87.47;42.90;;;;;;;42.30;33.88;101308.03;4800128;29;20431;-81
2023/01/10 11:30:01;;;;;;;71.17;41.70;;;;;;;42.33;33.55;101310.09;4788419;29;20443;-82
2023/01/10 11:32:39;;;;;;;90.70;44.40;;;;;;;42.33;33.59;101302.72;4787662;29;20992;-78